Time;durP1;ratioP1;P1;durP2;ratioP2;P2;SDS_P1;SDS_P2;PMS_P1;PMS_P2;Temp;Humidity;BMP_temperature;BMP_pressure;BME280_temperature;BME280_humidity;BME280_pressure;Samples;Min_cycle;Max_cycle;Signal;HPM_P1;HPM_P2
2023/01/01 00:01:28;;;;;;;35.00;13.97;;;;;;;14.44;71.08;100795.84;5042512;28;20102;-74
2023/01/01 00:03:56;;;;;;;25.30;11.93;;;;;;;14.42;71.46;100810.94;5040098;28;20480;-74
2023/01/01 00:06:22;;;;;;;28.30;12.23;;;;;;;14.43;71.04;100796.06;5038143;28;20055;-75
2023/01/01 00:10:26;;;;;;;35.10;11.90;;;;;;;14.44;70.98;100814.28;5040349;28;20412;-75
2023/01/01 00:11:34;;;;;;;29.70;12.18;;;;;;;14.43;71.18;100794.19;5051780;28;20144;-74
2023/01/01 00:13:59;;;;;;;32.13;11.50;;;;;;;14.45;70.97;100799.44;5043724;28;20049;-76
2023/01/01 00:16:24;;;;;;;36.03;12.37;;;;;;;14.31;72.08;100795.09;5041506;28;20040;-75
2023/01/01 00:18:50;;;;;;;26.17;11.53;;;;;;;14.38;71.13;100793.13;5046074;28;20159;-74
2023/01/01 00:21:16;;;;;;;22.57;9.00;;;;;;;14.41;71.13;100804.56;5044770;28;20061;-75
2023/01/01 00:23:41;;;;;;;22.45;8.30;;;;;;;14.47;70.39;100822.13;5041605;28;20032;-75
2023/01/01 00:26:12;;;;;;;23.77;8.70;;;;;;;14.34;71.67;100809.28;5042287;28;20492;-75
2023/01/01 00:28:38;;;;;;;36.65;10.20;;;;;;;14.31;71.65;100819.91;5040976;28;20032;-74
2023/01/01 00:31:11;;;;;;;25.23;8.60;;;;;;;14.30;71.46;100812.72;5038263;28;20385;-75
2023/01/01 00:33:37;;;;;;;26.15;7.55;;;;;;;14.30;71.53;100819.06;5039546;28;20021;-74
2023/01/01 00:36:10;;;;;;;20.77;8.07;;;;;;;14.35;71.04;100810.97;5042068;28;20512;-74
2023/01/01 00:38:36;;;;;;;18.83;7.45;;;;;;;14.30;71.38;100813.53;5042524;28;20079;-74
2023/01/01 00:41:02;;;;;;;27.77;7.20;;;;;;;14.29;71.02;100819.25;5042940;28;20036;-74
2023/01/01 00:43:27;;;;;;;19.10;7.03;;;;;;;14.34;71.43;100813.94;5040025;28;20116;-74
2023/01/01 00:45:53;;;;;;;13.43;6.63;;;;;;;14.34;70.76;100813.94;5043856;28;20766;-74
2023/01/01 00:48:19;;;;;;;17.23;5.33;;;;;;;14.32;71.23;100816.94;5035429;28;20069;-74
2023/01/01 00:50:48;;;;;;;15.32;5.50;;;;;;;14.26;71.60;100816.97;5038335;28;20033;-74
2023/01/01 00:53:13;;;;;;;18.70;7.07;;;;;;;14.21;72.10;100816.78;5035007;28;20040;-75
2023/01/01 00:55:40;;;;;;;22.70;5.37;;;;;;;14.36;71.45;100811.81;5040829;28;20025;-75
2023/01/01 00:58:05;;;;;;;19.33;5.03;;;;;;;14.28;71.38;100809.31;5050474;28;20401;-74
2023/01/01 01:00:31;;;;;;;17.20;6.40;;;;;;;14.21;72.67;100816.78;5034349;28;20044;-75
2023/01/01 01:02:56;;;;;;;20.57;6.10;;;;;;;14.28;72.01;100812.06;5053340;28;20036;-75
2023/01/01 01:05:22;;;;;;;18.07;5.73;;;;;;;14.22;72.22;100805.56;5038670;28;20021;-74
2023/01/01 01:07:47;;;;;;;15.17;6.43;;;;;;;14.17;72.82;100818.25;5038229;28;20028;-75
2023/01/01 01:10:13;;;;;;;20.63;4.80;;;;;;;14.19;71.46;100805.13;5031650;28;20032;-75
2023/01/01 01:12:38;;;;;;;14.93;5.20;;;;;;;14.22;71.79;100823.97;5036266;28;20085;-76
2023/01/01 01:15:05;;;;;;;14.50;3.93;;;;;;;14.15;72.21;100836.94;5033886;28;20033;-77
2023/01/01 01:17:31;;;;;;;;;;;;;;;14.15;72.28;100831.44;5037878;28;20199;-75
2023/01/01 01:19:56;;;;;;;9.40;3.92;;;;;;;14.07;72.41;100838.03;5034263;28;19921;-74
2023/01/01 01:22:21;;;;;;;19.87;4.03;;;;;;;14.16;71.73;100833.09;5033669;28;20556;-74
2023/01/01 01:24:47;;;;;;;8.13;4.30;;;;;;;14.07;72.39;100846.28;5037855;28;20029;-76
2023/01/01 01:27:12;;;;;;;10.13;4.00;;;;;;;14.06;72.19;100836.34;5038945;28;20025;-74
2023/01/01 01:29:37;;;;;;;15.47;4.13;;;;;;;14.05;72.21;100847.56;5041797;28;20104;-76
2023/01/01 01:32:03;;;;;;;15.70;4.50;;;;;;;14.05;72.46;100842.06;5039390;28;20029;-73
2023/01/01 01:34:28;;;;;;;16.70;4.17;;;;;;;14.12;71.85;100854.75;5054263;28;20075;-75
2023/01/01 01:36:54;;;;;;;16.20;4.50;;;;;;;14.05;71.84;100845.69;5038370;28;20465;-74
2023/01/01 01:39:20;;;;;;;12.90;4.20;;;;;;;14.08;72.15;100852.66;5036989;28;20075;-74
2023/01/01 01:41:45;;;;;;;13.57;5.13;;;;;;;14.02;72.15;100853.50;5038583;28;20103;-75
2023/01/01 01:44:47;;;;;;;20.70;3.53;;;;;;;13.96;72.71;100852.50;5041349;28;20033;-74
2023/01/01 01:47:36;;;;;;;22.30;3.58;;;;;;;13.96;72.47;100868.16;5037186;28;20037;-74
2023/01/01 01:50:18;;;;;;;19.50;4.05;;;;;;;13.92;72.68;100855.91;5032796;28;20078;-74
2023/01/01 01:53:08;;;;;;;15.48;4.32;;;;;;;13.94;71.80;100867.53;5040137;28;20080;-75
2023/01/01 01:55:39;;;;;;;17.02;4.35;;;;;;;13.87;72.59;100875.81;5031080;28;20465;-75
2023/01/01 01:58:08;;;;;;;20.50;6.93;;;;;;;13.87;72.67;100875.81;5036629;28;20120;-77
2023/01/01 02:00:34;;;;;;;11.57;4.78;;;;;;;13.94;71.95;100870.31;5035387;28;20342;-75
2023/01/01 02:03:07;;;;;;;18.17;5.73;;;;;;;13.98;71.79;100890.84;5034760;28;20021;-74
2023/01/01 02:05:34;;;;;;;25.77;5.97;;;;;;;14.05;71.52;100894.41;5042129;28;20078;-74
2023/01/01 02:08:01;;;;;;;16.10;4.30;;;;;;;14.04;71.49;100877.03;5041919;28;20021;-74
2023/01/01 02:10:27;;;;;;;17.27;3.42;;;;;;;14.03;71.43;100888.28;5032270;28;20496;-75
2023/01/01 02:12:54;;;;;;;12.00;3.57;;;;;;;14.01;72.08;100882.13;5036329;28;20058;-77
2023/01/01 02:15:22;;;;;;;10.38;3.10;;;;;;;13.91;72.74;100884.50;5037561;28;20033;-73
2023/01/01 02:18:05;;;;;;;11.13;2.63;;;;;;;13.88;72.54;100884.94;5038452;28;20082;-75
2023/01/01 02:20:52;;;;;;;10.88;3.08;;;;;;;13.92;72.90;100892.53;5036911;28;20040;-75
2023/01/01 02:23:48;;;;;;;9.48;3.33;;;;;;;13.88;72.84;100884.94;5035829;28;20037;-75
2023/01/01 02:26:17;;;;;;;5.82;2.50;;;;;;;13.93;72.41;100909.94;5049378;28;20035;-75
2023/01/01 02:29:15;;;;;;;8.68;2.35;;;;;;;13.96;71.92;100895.69;5038932;28;20037;-75
2023/01/01 02:31:49;;;;;;;9.68;2.65;;;;;;;13.89;72.56;100886.63;5035868;28;20480;-74
2023/01/01 02:34:19;;;;;;;6.93;2.35;;;;;;;13.86;72.31;100887.91;5037474;28;20179;-74
2023/01/01 02:36:51;;;;;;;9.45;2.90;;;;;;;13.90;71.97;100891.06;5035820;28;20032;-76
2023/01/01 02:39:20;;;;;;;10.65;2.65;;;;;;;13.88;72.54;100901.47;5036152;28;20025;-75
2023/01/01 02:41:49;;;;;;;9.18;2.33;;;;;;;13.86;71.96;100903.56;5038878;28;20088;-74
2023/01/01 02:44:17;;;;;;;14.73;4.05;;;;;;;13.92;71.33;100906.31;5031904;28;20033;-74
2023/01/01 02:46:43;;;;;;;7.28;2.08;;;;;;;13.87;71.43;100905.28;5028464;28;20037;-76
2023/01/01 02:49:10;;;;;;;17.87;2.47;;;;;;;13.92;70.87;100903.56;5036580;28;20095;-74
2023/01/01 02:51:53;;;;;;;8.48;2.30;;;;;;;13.90;71.39;100902.09;5035932;28;20036;-74
2023/01/01 02:54:51;;;;;;;13.35;2.90;;;;;;;13.87;71.41;100921.81;5033366;28;20045;-74
2023/01/01 02:57:35;;;;;;;21.80;3.45;;;;;;;13.89;71.35;100917.78;5028679;28;21929;-74
2023/01/01 03:00:30;;;;;;;10.57;3.03;;;;;;;13.88;71.31;100918.00;5032633;28;20396;-74
2023/01/01 03:03:17;;;;;;;12.95;3.17;;;;;;;13.79;72.08;100913.78;5039188;28;20104;-74
2023/01/01 03:08:56;;;;;;;10.73;2.40;;;;;;;13.69;72.49;100918.88;5035292;28;20139;-74
2023/01/01 03:11:29;;;;;;;15.68;2.55;;;;;;;13.77;72.13;100907.66;5033920;28;20033;-74
2023/01/01 03:14:12;;;;;;;11.00;2.60;;;;;;;13.75;71.97;100918.88;5034580;28;20029;-73
2023/01/01 03:16:41;;;;;;;10.45;2.15;;;;;;;13.73;72.66;100936.66;5036000;28;20037;-75
2023/01/01 03:19:09;;;;;;;7.38;2.20;;;;;;;13.73;72.71;100936.66;5033953;28;20053;-74
2023/01/01 03:21:42;;;;;;;10.18;2.70;;;;;;;13.71;72.32;100917.59;5030921;28;20053;-74
2023/01/01 03:24:37;;;;;;;12.23;3.55;;;;;;;13.68;72.68;100926.31;5033773;28;20717;-74
2023/01/01 03:27:08;;;;;;;11.98;3.45;;;;;;;13.74;72.59;100933.72;5038078;28;20060;-74
2023/01/01 03:29:38;;;;;;;21.35;4.15;;;;;;;13.63;73.54;100945.38;5031882;28;20037;-74
2023/01/01 03:32:05;;;;;;;8.32;2.28;;;;;;;13.75;72.66;100951.06;5034334;28;20436;-75
2023/01/01 03:34:38;;;;;;;17.63;2.67;;;;;;;13.73;73.15;100948.53;5034623;28;20048;-74
2023/01/01 03:37:13;;;;;;;13.43;2.40;;;;;;;13.71;72.89;100944.31;5036131;28;20029;-74
2023/01/01 03:39:51;;;;;;;13.65;2.80;;;;;;;13.67;73.52;100954.88;5034758;28;20036;-74
2023/01/01 03:42:33;;;;;;;9.73;2.65;;;;;;;13.70;73.83;100970.13;5034220;28;20046;-75
2023/01/01 03:45:10;;;;;;;15.25;2.60;;;;;;;13.64;74.33;100988.34;5035777;28;20473;-75
2023/01/01 03:47:36;;;;;;;12.15;2.72;;;;;;;13.60;76.43;101005.53;5036646;28;20136;-74
2023/01/01 03:50:03;;;;;;;19.55;3.33;;;;;;;13.39;80.17;101022.25;5034816;28;20037;-76
2023/01/01 03:52:34;;;;;;;15.52;3.13;;;;;;;12.99;85.78;101035.09;5039228;28;20030;-77
2023/01/01 03:55:40;;;;;;;19.13;4.68;;;;;;;12.73;89.12;101062.47;5036750;28;20060;-75
2023/01/01 03:58:34;;;;;;;16.52;3.30;;;;;;;12.48;91.09;101052.25;5037418;28;20026;-75
2023/01/01 04:01:41;;;;;;;15.02;3.58;;;;;;;12.17;94.95;101074.66;5035898;28;20051;-75
2023/01/01 04:04:07;;;;;;;14.55;2.88;;;;;;;12.10;96.50;101064.69;5037515;28;20014;-75
2023/01/01 04:06:33;;;;;;;23.20;3.77;;;;;;;12.06;97.48;101052.44;5038648;28;20048;-74
2023/01/01 04:09:00;;;;;;;10.47;2.83;;;;;;;12.06;97.28;101034.03;5030636;28;20037;-74
2023/01/01 04:14:28;;;;;;;17.15;3.58;;;;;;;11.99;98.38;101038.66;5035546;28;20098;-76
2023/01/01 04:16:58;;;;;;;19.77;3.90;;;;;;;12.02;97.81;101032.75;5033638;28;20418;-74
2023/01/01 04:19:24;;;;;;;14.13;3.70;;;;;;;12.09;96.63;101030.03;5049063;28;20056;-75
2023/01/01 04:21:50;;;;;;;10.18;2.78;;;;;;;12.11;95.69;101019.72;5033557;28;20037;-74
2023/01/01 04:24:15;;;;;;;20.40;4.57;;;;;;;12.14;95.46;101035.78;5032362;28;20366;-75
2023/01/01 04:26:41;;;;;;;18.40;3.22;;;;;;;12.19;94.53;101056.09;5034429;28;20133;-75
2023/01/01 04:29:06;;;;;;;14.03;3.47;;;;;;;12.16;94.79;101047.44;5032102;28;20033;-75
2023/01/01 04:31:33;;;;;;;17.52;4.10;;;;;;;12.14;94.18;101057.75;5036074;28;20378;-75
2023/01/01 04:33:58;;;;;;;;;;;;;;;12.29;92.20;101056.59;5034155;28;20473;-75
2023/01/01 04:36:24;;;;;;;9.35;2.78;;;;;;;12.35;90.86;101061.25;5035222;28;19917;-74
2023/01/01 04:38:49;;;;;;;14.15;3.22;;;;;;;12.46;88.77;101068.91;5036412;28;20288;-75
2023/01/01 04:41:14;;;;;;;33.57;3.07;;;;;;;12.47;88.68;101075.25;5033515;28;20029;-75
2023/01/01 04:43:40;;;;;;;16.67;2.90;;;;;;;12.44;88.72;101087.50;5037763;28;20021;-76
2023/01/01 04:46:05;;;;;;;11.40;2.93;;;;;;;12.47;88.29;101083.50;5037969;28;20040;-75
2023/01/01 04:48:31;;;;;;;9.77;2.00;;;;;;;12.49;88.84;101084.16;5039861;28;20100;-75
2023/01/01 04:51:02;;;;;;;10.43;2.40;;;;;;;12.54;88.42;101089.88;5037494;28;20033;-75
2023/01/01 04:53:29;;;;;;;9.45;2.92;;;;;;;12.45;89.32;101080.97;5038293;28;20426;-75
2023/01/01 04:56:02;;;;;;;12.57;2.88;;;;;;;12.45;88.44;101088.34;5042401;28;20068;-75
2023/01/01 04:58:27;;;;;;;7.05;1.80;;;;;;;12.47;86.86;101084.34;5037842;28;20033;-74
2023/01/01 05:00:52;;;;;;;15.73;2.20;;;;;;;12.51;85.81;101068.31;5052366;28;20059;-75
2023/01/01 05:03:18;;;;;;;8.07;1.80;;;;;;;12.42;83.87;101096.97;5039304;28;20116;-74
2023/01/01 05:05:43;;;;;;;10.43;2.00;;;;;;;12.49;82.58;101095.97;5039539;28;20029;-75
2023/01/01 05:08:08;;;;;;;10.30;2.00;;;;;;;12.41;83.19;101106.28;5038101;28;20448;-75
2023/01/01 05:10:34;;;;;;;10.90;2.00;;;;;;;12.36;83.48;101084.06;5034637;28;20059;-75
2023/01/01 05:12:59;;;;;;;11.40;2.22;;;;;;;12.40;82.88;101090.84;5040999;28;20036;-75
2023/01/01 05:15:25;;;;;;;9.18;1.80;;;;;;;12.38;82.77;101099.28;5038357;28;20473;-75
2023/01/01 05:17:50;;;;;;;14.32;2.03;;;;;;;12.35;82.72;101104.34;5034224;28;20439;-75
2023/01/01 05:20:16;;;;;;;7.80;1.67;;;;;;;12.34;81.63;101132.88;5039561;28;20034;-75
2023/01/01 05:22:41;;;;;;;5.70;1.27;;;;;;;12.34;80.55;101127.38;5035655;28;20346;-75
2023/01/01 05:25:07;;;;;;;8.07;2.17;;;;;;;12.26;79.99;101127.53;5037456;28;20039;-75
2023/01/01 05:27:32;;;;;;;9.43;1.63;;;;;;;12.17;81.25;101117.78;5037663;28;20112;-75
2023/01/01 05:29:57;;;;;;;8.17;1.27;;;;;;;12.23;79.24;101122.47;5033437;28;20041;-75
2023/01/01 05:32:23;;;;;;;3.97;1.20;;;;;;;12.15;78.94;101131.69;5040018;28;20087;-75
2023/01/01 05:34:48;;;;;;;9.73;1.37;;;;;;;12.16;77.94;101121.56;5035982;28;20037;-75
2023/01/01 05:37:15;;;;;;;7.40;1.57;;;;;;;12.11;77.90;101126.81;5038969;28;20059;-75
2023/01/01 05:39:42;;;;;;;11.13;1.55;;;;;;;12.13;76.19;101139.31;5034213;28;20025;-75
2023/01/01 05:42:07;;;;;;;7.28;1.75;;;;;;;12.08;76.61;101150.03;5041914;28;20077;-75
2023/01/01 05:44:33;;;;;;;2.77;1.30;;;;;;;12.06;77.00;101154.03;5042474;28;20072;-75
2023/01/01 05:46:58;;;;;;;5.65;1.45;;;;;;;11.99;77.02;101166.81;5038333;28;20025;-75
2023/01/01 05:49:24;;;;;;;4.47;1.33;;;;;;;11.97;76.74;101157.94;5035529;28;20746;-75
2023/01/01 05:51:49;;;;;;;9.93;1.30;;;;;;;11.92;76.70;101154.94;5036396;28;20032;-75
2023/01/01 05:54:14;;;;;;;5.73;1.10;;;;;;;11.93;76.67;101170.38;5035707;28;20323;-74
2023/01/01 05:56:40;;;;;;;4.57;1.20;;;;;;;11.91;77.00;101164.25;5038936;28;20103;-75
2023/01/01 05:59:05;;;;;;;7.25;1.17;;;;;;;11.87;77.06;101169.28;5032876;28;20030;-75
2023/01/01 06:01:31;;;;;;;6.20;1.85;;;;;;;11.88;76.50;101184.69;5038911;28;20477;-75
2023/01/01 06:03:58;;;;;;;8.53;2.27;;;;;;;11.89;76.72;101177.28;5049027;28;20036;-75
2023/01/01 06:06:29;;;;;;;4.43;1.30;;;;;;;11.78;77.99;101183.31;5035343;28;20095;-75
2023/01/01 06:08:59;;;;;;;4.65;1.50;;;;;;;11.87;76.45;101193.13;5036814;28;20064;-75
2023/01/01 06:11:26;;;;;;;5.47;1.38;;;;;;;11.83;76.40;101192.69;5038109;28;20032;-74
2023/01/01 06:13:52;;;;;;;11.93;1.80;;;;;;;11.76;76.23;101197.25;5041139;28;20020;-75
2023/01/01 06:16:19;;;;;;;2.30;1.02;;;;;;;11.77;76.97;101209.94;5036454;28;20030;-75
2023/01/01 06:18:44;;;;;;;5.38;1.25;;;;;;;11.73;76.26;101214.09;5039954;28;20128;-75
2023/01/01 06:21:13;;;;;;;8.48;1.40;;;;;;;11.72;76.40;101217.91;5036936;28;20041;-75
2023/01/01 06:23:39;;;;;;;9.88;1.27;;;;;;;11.75;76.35;101222.16;5038425;28;20378;-76
2023/01/01 06:26:12;;;;;;;3.90;0.90;;;;;;;11.76;76.57;101212.88;5032546;28;20037;-75
2023/01/01 06:28:39;;;;;;;5.55;1.00;;;;;;;11.68;76.79;101221.25;5039105;28;20267;-75
2023/01/01 06:31:06;;;;;;;3.30;1.00;;;;;;;11.64;77.76;101220.75;5035627;28;20104;-75
2023/01/01 06:33:32;;;;;;;7.38;1.45;;;;;;;11.64;77.45;101225.41;5037937;28;20020;-75
2023/01/01 06:36:01;;;;;;;8.30;1.50;;;;;;;11.58;77.91;101232.47;5039176;28;20593;-75
2023/01/01 06:38:29;;;;;;;8.60;1.60;;;;;;;11.62;76.98;101232.97;5026158;28;20065;-75
2023/01/01 06:40:59;;;;;;;11.63;1.60;;;;;;;11.62;77.52;101239.31;5039970;28;20037;-75
2023/01/01 06:43:25;;;;;;;6.00;1.50;;;;;;;11.53;78.18;101242.34;5037327;28;20263;-74
2023/01/01 06:46:03;;;;;;;5.28;1.50;;;;;;;11.55;77.99;101234.78;5032961;28;20025;-75
2023/01/01 06:48:30;;;;;;;6.72;1.50;;;;;;;11.47;79.53;101243.13;5037752;28;20383;-75
2023/01/01 06:50:56;;;;;;;10.82;1.65;;;;;;;11.47;79.22;101252.19;5036937;28;20033;-75
2023/01/01 06:53:25;;;;;;;9.10;1.53;;;;;;;11.46;79.95;101244.16;5035378;28;20017;-75
2023/01/01 06:55:52;;;;;;;13.07;1.63;;;;;;;11.41;80.25;101258.44;5035169;28;20429;-75
2023/01/01 06:58:18;;;;;;;9.02;1.50;;;;;;;11.41;80.25;101263.94;5043174;28;20505;-75
2023/01/01 07:00:43;;;;;;;11.30;2.17;;;;;;;11.32;80.83;101277.97;5041671;28;20064;-75
2023/01/01 07:03:09;;;;;;;9.80;1.60;;;;;;;11.29;81.04;101283.81;5039371;28;20087;-75
2023/01/01 07:05:35;;;;;;;10.57;1.88;;;;;;;11.23;81.57;101295.56;5037059;28;20033;-75
2023/01/01 07:08:00;;;;;;;9.93;1.80;;;;;;;11.33;80.45;101299.72;5035314;28;20037;-75
2023/01/01 07:10:26;;;;;;;12.77;2.03;;;;;;;11.31;80.51;101309.19;5033783;28;20040;-77
2023/01/01 07:12:51;;;;;;;6.72;1.55;;;;;;;11.27;80.48;101305.94;5033751;28;20071;-75
2023/01/01 07:15:16;;;;;;;9.20;1.70;;;;;;;11.25;81.07;101315.41;5035812;28;20035;-75
2023/01/01 07:17:42;;;;;;;11.47;1.80;;;;;;;11.20;81.19;101320.63;5037386;28;20029;-75
2023/01/01 07:20:08;;;;;;;11.30;1.42;;;;;;;11.16;81.57;101313.81;5032491;28;20033;-75
2023/01/01 07:22:36;;;;;;;5.50;1.20;;;;;;;11.07;81.20;101302.09;5035362;28;20083;-76
2023/01/01 07:25:03;;;;;;;9.82;1.83;;;;;;;11.08;81.09;101325.72;5033238;28;20523;-75
2023/01/01 07:27:28;;;;;;;;;;;;;;;10.99;81.91;101334.25;5022498;28;20481;-76
2023/01/01 07:29:53;;;;;;;6.57;1.20;;;;;;;10.98;81.60;101341.59;5035471;28;19924;-76
2023/01/01 07:32:19;;;;;;;7.80;1.77;;;;;;;11.02;81.78;101359.38;5033158;28;20021;-75
2023/01/01 07:34:44;;;;;;;5.40;1.23;;;;;;;10.98;81.55;101360.78;5032131;28;20029;-75
2023/01/01 07:37:10;;;;;;;8.40;1.90;;;;;;;10.96;82.16;101364.75;5036957;28;20049;-75
2023/01/01 07:39:35;;;;;;;10.70;2.23;;;;;;;10.94;82.59;101364.09;5031195;28;20511;-74
2023/01/01 07:42:01;;;;;;;9.87;1.60;;;;;;;10.90;82.92;101365.50;5031681;28;20505;-75
2023/01/01 07:44:26;;;;;;;6.00;1.70;;;;;;;10.95;82.63;101374.84;5029430;28;20026;-76
2023/01/01 07:47:04;;;;;;;17.90;1.88;;;;;;;10.86;83.57;101383.34;5031621;28;20079;-77
2023/01/01 07:49:29;;;;;;;;;;;;;;;10.86;83.97;101380.59;5032932;28;20041;-76
2023/01/01 07:51:54;;;;;;;6.55;1.50;;;;;;;10.85;83.82;101376.19;5038743;28;19962;-76
2023/01/01 07:54:19;;;;;;;14.40;1.80;;;;;;;10.79;84.41;101385.13;5035775;28;20049;-75
2023/01/01 07:56:45;;;;;;;7.70;1.90;;;;;;;10.79;85.16;101387.88;5033041;28;20037;-75
2023/01/01 07:59:10;;;;;;;10.20;1.95;;;;;;;10.81;84.60;101392.13;5033116;28;20546;-76
2023/01/01 08:01:36;;;;;;;16.92;2.20;;;;;;;10.78;85.11;101388.94;5033053;28;21397;-77
2023/01/01 08:04:02;;;;;;;10.60;2.27;;;;;;;10.81;85.03;101394.03;5034758;28;20035;-75
2023/01/01 08:06:27;;;;;;;12.68;2.22;;;;;;;10.90;84.65;101403.88;5034063;28;20051;-75
2023/01/01 08:08:53;;;;;;;13.82;2.42;;;;;;;10.87;84.74;101412.44;5037436;28;20037;-74
2023/01/01 08:11:18;;;;;;;13.85;2.28;;;;;;;10.82;85.30;101429.47;5033324;28;20038;-74
2023/01/01 08:13:44;;;;;;;9.88;2.38;;;;;;;10.83;85.10;101424.84;5030913;28;20502;-75
2023/01/01 08:16:09;;;;;;;13.03;2.43;;;;;;;10.87;85.17;101427.03;5029728;28;20159;-73
2023/01/01 08:18:35;;;;;;;14.67;2.37;;;;;;;10.85;86.05;101420.03;5033503;28;20024;-75
2023/01/01 08:21:01;;;;;;;14.20;2.00;;;;;;;10.84;85.73;101419.16;5043941;28;20440;-74
2023/01/01 08:23:27;;;;;;;12.47;1.77;;;;;;;10.90;86.02;101420.31;5038919;28;20021;-74
2023/01/01 08:25:53;;;;;;;9.95;2.45;;;;;;;10.90;85.87;101420.31;5039512;28;20328;-74
2023/01/01 08:28:18;;;;;;;16.87;2.80;;;;;;;10.93;85.47;101430.91;5037446;28;20033;-74
2023/01/01 08:30:44;;;;;;;10.30;1.65;;;;;;;10.95;85.18;101432.41;5034130;28;20744;-75
2023/01/01 08:33:09;;;;;;;17.53;2.13;;;;;;;10.99;85.19;101430.19;5043923;28;20100;-75
2023/01/01 08:35:39;;;;;;;11.37;2.30;;;;;;;10.98;84.90;101425.72;5042144;28;20477;-74
2023/01/01 08:38:04;;;;;;;10.45;2.03;;;;;;;10.98;85.22;101432.06;5037694;28;20028;-74
2023/01/01 08:40:30;;;;;;;6.80;1.37;;;;;;;11.01;84.96;101436.31;5035602;28;20025;-74
2023/01/01 08:42:55;;;;;;;12.52;2.13;;;;;;;11.02;84.89;101427.91;5043059;28;20049;-74
2023/01/01 08:45:22;;;;;;;7.53;1.70;;;;;;;11.07;84.33;101441.06;5042790;28;20102;-74
2023/01/01 08:47:47;;;;;;;6.97;1.50;;;;;;;11.10;83.81;101437.94;5037748;28;20377;-74
2023/01/01 08:50:13;;;;;;;8.93;2.88;;;;;;;11.08;84.81;101440.00;5044571;28;20048;-74
2023/01/01 08:52:38;;;;;;;10.07;2.43;;;;;;;11.07;85.10;101452.03;5037057;28;20052;-75
2023/01/01 08:55:04;;;;;;;12.37;1.70;;;;;;;11.12;85.46;101438.59;5041118;28;20033;-75
2023/01/01 08:57:30;;;;;;;12.07;1.77;;;;;;;11.15;84.92;101444.56;5040531;28;20036;-74
2023/01/01 08:59:55;;;;;;;12.95;2.10;;;;;;;11.17;84.88;101458.97;5047059;28;20488;-75
2023/01/01 09:02:21;;;;;;;12.10;2.72;;;;;;;11.15;85.87;101466.50;5043570;28;20045;-74
2023/01/01 09:04:46;;;;;;;12.18;2.60;;;;;;;11.18;85.24;101454.31;5054174;28;20559;-75
2023/01/01 09:07:11;;;;;;;23.23;2.77;;;;;;;11.26;85.44;101466.06;5038666;28;20124;-75
2023/01/01 09:09:37;;;;;;;11.80;2.07;;;;;;;11.19;86.53;101462.34;5037417;28;20041;-74
2023/01/01 09:12:04;;;;;;;11.23;2.55;;;;;;;11.22;86.18;101466.63;5038748;28;20428;-74
2023/01/01 09:14:33;;;;;;;10.93;2.33;;;;;;;11.24;86.64;101470.00;5043574;28;20021;-74
2023/01/01 09:16:59;;;;;;;19.80;3.03;;;;;;;11.28;86.67;101474.09;5038626;28;20075;-74
2023/01/01 09:19:25;;;;;;;8.90;1.90;;;;;;;11.30;86.87;101489.31;5037827;28;20579;-74
2023/01/01 09:21:51;;;;;;;17.00;2.23;;;;;;;11.33;87.27;101485.34;5034286;28;20025;-75
2023/01/01 09:24:16;;;;;;;9.55;1.88;;;;;;;11.40;87.93;101486.31;5044234;28;20056;-75
2023/01/01 09:26:41;;;;;;;15.37;2.50;;;;;;;11.36;88.38;101488.56;5039409;28;20388;-75
2023/01/01 09:29:07;;;;;;;17.00;3.33;;;;;;;11.42;88.94;101481.50;5036546;28;20068;-74
2023/01/01 09:31:32;;;;;;;11.80;2.47;;;;;;;11.42;89.50;101478.75;5033239;28;20029;-75
2023/01/01 09:33:57;;;;;;;16.20;3.20;;;;;;;11.44;90.13;101484.91;5042660;28;20549;-75
2023/01/01 09:36:23;;;;;;;9.40;1.85;;;;;;;11.43;90.83;101491.44;5036972;28;20025;-74
2023/01/01 09:38:49;;;;;;;16.33;3.33;;;;;;;11.42;91.40;101476.84;5032958;28;20071;-75
2023/01/01 09:41:36;;;;;;;12.10;1.83;;;;;;;11.50;91.06;101487.75;5040218;28;20037;-75
2023/01/01 09:44:16;;;;;;;17.90;2.63;;;;;;;11.48;91.71;101494.47;5035836;28;20037;-74
2023/01/01 09:46:42;;;;;;;8.65;1.98;;;;;;;11.52;91.27;101509.53;5031515;28;20479;-75
2023/01/01 09:49:29;;;;;;;12.43;2.97;;;;;;;11.55;91.17;101500.91;5040414;28;20064;-75
2023/01/01 09:52:00;;;;;;;10.13;2.35;;;;;;;11.54;91.42;101499.19;5041884;28;20051;-75
2023/01/01 09:54:28;;;;;;;17.73;3.15;;;;;;;11.58;91.55;101492.31;5035631;28;20381;-77
2023/01/01 09:56:57;;;;;;;11.90;2.53;;;;;;;11.67;90.81;101499.41;5034497;28;20381;-74
2023/01/01 09:59:23;;;;;;;18.92;3.20;;;;;;;11.68;90.08;101514.88;5036799;28;20029;-74
2023/01/01 10:02:19;;;;;;;8.80;1.93;;;;;;;11.65;91.11;101517.97;5034509;28;20437;-75
2023/01/01 10:05:22;;;;;;;14.85;2.42;;;;;;;11.77;89.79;101516.47;5036347;28;20061;-75
2023/01/01 10:08:00;;;;;;;12.32;2.35;;;;;;;11.71;90.85;101517.22;5033947;28;20075;-76
2023/01/01 10:10:41;;;;;;;14.45;2.42;;;;;;;11.76;90.24;101521.13;5032198;28;20025;-74
2023/01/01 10:13:06;;;;;;;21.50;4.40;;;;;;;11.79;90.84;101522.63;5036823;28;20118;-74
2023/01/01 10:15:40;;;;;;;10.60;2.70;;;;;;;11.84;90.31;101522.94;5041697;28;20060;-74
2023/01/01 10:18:18;;;;;;;14.25;2.10;;;;;;;11.84;90.42;101517.44;5041155;28;20402;-74
2023/01/01 10:20:56;;;;;;;13.55;2.63;;;;;;;11.93;90.14;101494.31;5037555;28;20064;-76
2023/01/01 10:23:26;;;;;;;9.23;1.80;;;;;;;11.96;89.91;101494.78;5034390;28;20038;-74
2023/01/01 10:25:55;;;;;;;15.32;2.55;;;;;;;12.03;90.00;101490.25;5039085;28;20021;-75
2023/01/01 10:28:38;;;;;;;11.10;2.03;;;;;;;12.06;90.22;101480.78;5043303;28;20384;-74
2023/01/01 10:31:15;;;;;;;16.92;3.20;;;;;;;12.08;90.37;101481.44;5041338;28;20033;-75
2023/01/01 10:33:40;;;;;;;14.55;3.15;;;;;;;12.13;90.54;101478.97;5041967;28;20021;-75
2023/01/01 10:36:09;;;;;;;11.10;2.67;;;;;;;11.97;91.57;101480.03;5038730;28;20128;-75
2023/01/01 10:38:36;;;;;;;16.83;2.95;;;;;;;11.94;91.78;101501.50;5041497;28;20079;-76
2023/01/01 10:41:08;;;;;;;12.23;2.80;;;;;;;11.87;92.27;101503.31;5039158;28;20440;-75
2023/01/01 10:43:33;;;;;;;13.48;2.80;;;;;;;11.86;92.57;101496.13;5039365;28;20150;-75
2023/01/01 10:46:01;;;;;;;11.37;2.73;;;;;;;11.80;92.66;101494.97;5042249;28;20104;-75
2023/01/01 10:48:31;;;;;;;16.38;3.00;;;;;;;11.84;93.34;101495.47;5039241;28;20051;-74
2023/01/01 10:50:59;;;;;;;18.00;3.75;;;;;;;11.83;93.03;101527.56;5038800;28;20033;-74
2023/01/01 10:53:40;;;;;;;7.90;2.63;;;;;;;11.87;93.52;101533.50;5039459;28;20017;-74
2023/01/01 10:56:18;;;;;;;10.07;2.45;;;;;;;11.93;93.11;101530.00;5039292;28;20036;-74
2023/01/01 10:58:49;;;;;;;12.88;2.40;;;;;;;11.99;93.26;101530.09;5040348;28;20159;-75
2023/01/01 11:01:17;;;;;;;18.77;3.92;;;;;;;12.05;93.09;101536.72;5039380;28;20535;-75
2023/01/01 11:04:02;;;;;;;11.25;2.67;;;;;;;12.15;92.48;101535.41;5040658;28;20044;-75
2023/01/01 11:06:32;;;;;;;12.82;3.25;;;;;;;12.14;92.63;101536.47;5038212;28;20499;-74
2023/01/01 11:09:02;;;;;;;22.80;3.15;;;;;;;12.27;92.14;101531.13;5039939;28;20388;-74
2023/01/01 11:12:07;;;;;;;17.33;3.60;;;;;;;12.33;91.88;101535.84;5051844;28;20114;-75
2023/01/01 11:14:48;;;;;;;17.63;3.05;;;;;;;12.31;92.21;101539.81;5032582;28;20065;-74
2023/01/01 11:17:24;;;;;;;24.20;3.72;;;;;;;12.32;92.30;101533.31;5039511;28;20389;-74
2023/01/01 11:19:51;;;;;;;11.80;3.30;;;;;;;12.30;92.13;101539.00;5038517;28;20396;-76
2023/01/01 11:22:40;;;;;;;20.60;2.95;;;;;;;12.37;92.04;101542.66;5036646;28;20051;-75
2023/01/01 11:25:19;;;;;;;20.48;4.03;;;;;;;12.41;91.58;101521.16;5040032;28;20351;-74
2023/01/01 11:27:45;;;;;;;17.35;3.25;;;;;;;12.42;91.65;101514.59;5038524;28;20033;-76
2023/01/01 11:30:27;;;;;;;12.32;4.43;;;;;;;12.42;91.60;101520.09;5041045;28;20025;-74
2023/01/01 11:32:58;;;;;;;21.98;4.32;;;;;;;12.36;91.99;101512.63;5042133;28;20057;-73
2023/01/01 11:35:26;;;;;;;13.80;3.65;;;;;;;12.42;91.00;101518.22;5039064;28;20025;-74
2023/01/01 11:37:53;;;;;;;14.65;2.78;;;;;;;12.43;91.39;101519.09;5033718;28;20116;-74